Time;durP1;ratioP1;P1;durP2;ratioP2;P2;SDS_P1;SDS_P2;PMS_P1;PMS_P2;Temp;Humidity;BMP_temperature;BMP_pressure;BME280_temperature;BME280_humidity;BME280_pressure;Samples;Min_cycle;Max_cycle;Signal;HPM_P1;HPM_P2
2022/12/14 00:01:14;;;;;;;10.6;6.8;;;;;;;;;;;;;
2022/12/14 00:03:39;;;;;;;9.5;6.5;;;;;;;;;;;;;
2022/12/14 00:06:10;;;;;;;40;23.8;;;;;;;;;;;;;
2022/12/14 00:08:44;;;;;;;36.6;21.4;;;;;;;;;;;;;
2022/12/14 00:11:11;;;;;;;13.2;8.1;;;;;;;;;;;;;
2022/12/14 00:13:38;;;;;;;13.3;8.6;;;;;;;;;;;;;
2022/12/14 00:16:07;;;;;;;18.3;12.2;;;;;;;;;;;;;
2022/12/14 00:18:37;;;;;;;19.7;12.8;;;;;;;;;;;;;
2022/12/14 00:21:08;;;;;;;18.6;12.4;;;;;;;;;;;;;
2022/12/14 00:23:34;;;;;;;19.2;12.3;;;;;;;;;;;;;
2022/12/14 00:26:01;;;;;;;17.1;11.9;;;;;;;;;;;;;
2022/12/14 00:28:30;;;;;;;17;12.2;;;;;;;;;;;;;
2022/12/14 00:30:57;;;;;;;19;11.6;;;;;;;;;;;;;
2022/12/14 00:33:28;;;;;;;18.5;12;;;;;;;;;;;;;
2022/12/14 00:36:00;;;;;;;17.7;11.4;;;;;;;;;;;;;
2022/12/14 00:38:29;;;;;;;17.4;11.9;;;;;;;;;;;;;
2022/12/14 00:40:54;;;;;;;15.8;11.7;;;;;;;;;;;;;
2022/12/14 00:43:19;;;;;;;16.9;11.8;;;;;;;;;;;;;
2022/12/14 00:45:45;;;;;;;17.4;12.4;;;;;;;;;;;;;
2022/12/14 00:48:16;;;;;;;17.8;12.5;;;;;;;;;;;;;
2022/12/14 00:50:54;;;;;;;16.7;11.7;;;;;;;;;;;;;
2022/12/14 00:53:21;;;;;;;18.8;12.2;;;;;;;;;;;;;
2022/12/14 00:55:46;;;;;;;17.2;12.3;;;;;;;;;;;;;
2022/12/14 00:58:13;;;;;;;16.7;11.9;;;;;;;;;;;;;
2022/12/14 01:00:38;;;;;;;18.5;11.9;;;;;;;;;;;;;
2022/12/14 01:03:04;;;;;;;17.6;11.8;;;;;;;;;;;;;
2022/12/14 01:05:29;;;;;;;17.9;12.8;;;;;;;;;;;;;
2022/12/14 01:07:54;;;;;;;22;13.8;;;;;;;;;;;;;
2022/12/14 01:10:20;;;;;;;20.1;11.6;;;;;;;;;;;;;
2022/12/14 01:12:45;;;;;;;14.3;10.1;;;;;;;;;;;;;
2022/12/14 01:15:10;;;;;;;16.2;10.5;;;;;;;;;;;;;
2022/12/14 01:17:38;;;;;;;13.9;8.1;;;;;;;;;;;;;
2022/12/14 01:20:03;;;;;;;12.7;8.6;;;;;;;;;;;;;
2022/12/14 01:22:31;;;;;;;11.8;7.5;;;;;;;;;;;;;
2022/12/14 01:24:56;;;;;;;11;7.2;;;;;;;;;;;;;
2022/12/14 01:27:30;;;;;;;11;6.9;;;;;;;;;;;;;
2022/12/14 01:29:58;;;;;;;10.8;6.6;;;;;;;;;;;;;
2022/12/14 01:32:23;;;;;;;8;5.8;;;;;;;;;;;;;
2022/12/14 01:34:48;;;;;;;8.6;5.7;;;;;;;;;;;;;
2022/12/14 01:37:13;;;;;;;9.5;5.7;;;;;;;;;;;;;
2022/12/14 01:39:41;;;;;;;8.6;5.7;;;;;;;;;;;;;
2022/12/14 01:42:06;;;;;;;8;5.5;;;;;;;;;;;;;
2022/12/14 01:44:34;;;;;;;8.4;5.4;;;;;;;;;;;;;
2022/12/14 01:46:59;;;;;;;8.1;5.4;;;;;;;;;;;;;
2022/12/14 01:49:24;;;;;;;7.6;5;;;;;;;;;;;;;
2022/12/14 01:51:50;;;;;;;6.9;4.9;;;;;;;;;;;;;
2022/12/14 01:54:15;;;;;;;7.5;4.8;;;;;;;;;;;;;
2022/12/14 01:56:43;;;;;;;9.3;5.1;;;;;;;;;;;;;
2022/12/14 01:59:23;;;;;;;6.6;4.9;;;;;;;;;;;;;
2022/12/14 02:01:55;;;;;;;6.2;4.6;;;;;;;;;;;;;
2022/12/14 02:04:25;;;;;;;6.3;4.7;;;;;;;;;;;;;
2022/12/14 02:06:50;;;;;;;8.1;5.3;;;;;;;;;;;;;
2022/12/14 02:09:17;;;;;;;7.3;4.7;;;;;;;;;;;;;
2022/12/14 02:11:42;;;;;;;6.9;4.7;;;;;;;;;;;;;
2022/12/14 02:14:07;;;;;;;5.9;4.3;;;;;;;;;;;;;
2022/12/14 02:16:38;;;;;;;6.3;4.1;;;;;;;;;;;;;
2022/12/14 02:19:05;;;;;;;5.5;3.9;;;;;;;;;;;;;
2022/12/14 02:21:30;;;;;;;6.6;4.1;;;;;;;;;;;;;
2022/12/14 02:23:56;;;;;;;6.4;4.5;;;;;;;;;;;;;
2022/12/14 02:26:23;;;;;;;3.9;3.1;;;;;;;;;;;;;
2022/12/14 02:28:48;;;;;;;7;4.5;;;;;;;;;;;;;
2022/12/14 02:31:14;;;;;;;5.5;3.9;;;;;;;;;;;;;
2022/12/14 02:33:39;;;;;;;5.8;4;;;;;;;;;;;;;
2022/12/14 02:36:04;;;;;;;5.6;4.3;;;;;;;;;;;;;
2022/12/14 02:38:29;;;;;;;5.2;4.2;;;;;;;;;;;;;
2022/12/14 02:40:55;;;;;;;6.3;4.4;;;;;;;;;;;;;
2022/12/14 02:43:20;;;;;;;10;6.1;;;;;;;;;;;;;
2022/12/14 02:45:45;;;;;;;8.5;6.1;;;;;;;;;;;;;
2022/12/14 02:48:10;;;;;;;10.9;5.8;;;;;;;;;;;;;
2022/12/14 02:50:36;;;;;;;7.5;4.7;;;;;;;;;;;;;
2022/12/14 02:53:01;;;;;;;19.8;10.2;;;;;;;;;;;;;
2022/12/14 02:55:26;;;;;;;9.3;5.6;;;;;;;;;;;;;
2022/12/14 02:57:52;;;;;;;7.9;4.7;;;;;;;;;;;;;
2022/12/14 03:00:17;;;;;;;7.4;4;;;;;;;;;;;;;
2022/12/14 03:02:45;;;;;;;7.8;4.1;;;;;;;;;;;;;
2022/12/14 03:05:10;;;;;;;4.8;3.3;;;;;;;;;;;;;
2022/12/14 03:07:37;;;;;;;5.7;3.9;;;;;;;;;;;;;
2022/12/14 03:10:02;;;;;;;5.9;3.8;;;;;;;;;;;;;
2022/12/14 03:12:28;;;;;;;7.4;4.3;;;;;;;;;;;;;
2022/12/14 03:14:53;;;;;;;5;3.4;;;;;;;;;;;;;
2022/12/14 03:17:18;;;;;;;5.2;3.2;;;;;;;;;;;;;
2022/12/14 03:19:44;;;;;;;16.1;10.8;;;;;;;;;;;;;
2022/12/14 03:22:09;;;;;;;19.6;12.3;;;;;;;;;;;;;
2022/12/14 03:24:34;;;;;;;17.1;11;;;;;;;;;;;;;
2022/12/14 03:27:00;;;;;;;15.2;10.4;;;;;;;;;;;;;
2022/12/14 03:29:28;;;;;;;15.4;11;;;;;;;;;;;;;
2022/12/14 03:31:53;;;;;;;18;11.6;;;;;;;;;;;;;
2022/12/14 03:34:18;;;;;;;13.7;10.1;;;;;;;;;;;;;
2022/12/14 03:36:46;;;;;;;15.2;10.7;;;;;;;;;;;;;
2022/12/14 03:39:12;;;;;;;15.2;9.9;;;;;;;;;;;;;
2022/12/14 03:41:40;;;;;;;13;10;;;;;;;;;;;;;
2022/12/14 03:44:05;;;;;;;15.7;10.6;;;;;;;;;;;;;
2022/12/14 03:46:30;;;;;;;14.6;10.6;;;;;;;;;;;;;
2022/12/14 03:48:55;;;;;;;13.4;8.7;;;;;;;;;;;;;
2022/12/14 03:51:21;;;;;;;9.3;6.8;;;;;;;;;;;;;
2022/12/14 03:53:47;;;;;;;6.9;4.3;;;;;;;;;;;;;
2022/12/14 03:56:12;;;;;;;6.5;4.3;;;;;;;;;;;;;
2022/12/14 03:58:37;;;;;;;5;3.4;;;;;;;;;;;;;
2022/12/14 04:02:41;;;;;;;3;2;;;;;;;-0.35;95.47559;922.1768;;;;
2022/12/14 04:05:12;;;;;;;4.9;2.6;;;;;;;-0.12;94.80469;922.1394;;;;
2022/12/14 04:07:44;;;;;;;7.4;4.2;;;;;;;-0.04;94.40918;922.1418;;;;
2022/12/14 04:26:35;;;;;;;10.4;6.2;;;;;;;0.2;94.20508;921.9228;;;;
2022/12/14 04:31:41;;;;;;;6.3;4.1;;;;;;;0.04;95.00684;921.9052;;;;
2022/12/14 04:34:06;;;;;;;6.9;3.6;;;;;;;0.07;94.99219;921.8896;;;;
2022/12/14 04:36:31;;;;;;;4.6;3.1;;;;;;;0;95.35449;921.8904;;;;
2022/12/14 04:38:57;;;;;;;4.7;3.1;;;;;;;0.01;95.43262;921.8889;;;;
2022/12/14 04:41:22;;;;;;;3.8;2.7;;;;;;;0.1;95.12109;921.9012;;;;
2022/12/14 04:43:49;;;;;;;3.5;2.8;;;;;;;0.04;95.21777;921.9156;;;;
2022/12/14 04:46:14;;;;;;;3.2;2.3;;;;;;;0.15;95.04199;921.8998;;;;
2022/12/14 04:48:40;;;;;;;4.9;3.3;;;;;;;0.26;94.60059;921.8635;;;;
2022/12/14 04:51:11;;;;;;;3.7;2.8;;;;;;;0.24;94.7832;921.7706;;;;
2022/12/14 04:53:37;;;;;;;4;3;;;;;;;0.25;94.76367;921.7809;;;;
2022/12/14 04:56:04;;;;;;;3.1;2.7;;;;;;;0.22;95.42578;921.6661;;;;
2022/12/14 04:58:32;;;;;;;4.5;2.6;;;;;;;0.51;94.4541;921.72;;;;
2022/12/14 05:01:02;;;;;;;3.8;2.8;;;;;;;0.58;93.81055;921.6516;;;;
2022/12/14 05:03:27;;;;;;;3.9;2.9;;;;;;;0.63;93.7998;921.6003;;;;
2022/12/14 05:05:53;;;;;;;4.3;3.1;;;;;;;0.76;93.28125;921.5048;;;;
2022/12/14 05:08:19;;;;;;;6.1;3.8;;;;;;;0.76;92.87012;921.588;;;;
2022/12/14 05:10:57;;;;;;;5.7;4.3;;;;;;;0.34;94.76367;921.6052;;;;
2022/12/14 05:13:30;;;;;;;6.9;4.4;;;;;;;0.52;94.36719;921.5447;;;;
2022/12/14 05:16:03;;;;;;;8.4;4.2;;;;;;;0.7;93.64844;921.4936;;;;
2022/12/14 05:18:28;;;;;;;5.8;4.3;;;;;;;0.78;92.81836;921.4958;;;;
2022/12/14 05:21:06;;;;;;;5.3;3.1;;;;;;;0.54;93.76855;921.4199;;;;
2022/12/14 05:23:35;;;;;;;3.8;2.7;;;;;;;0.63;93.57715;921.3583;;;;
2022/12/14 05:26:03;;;;;;;4;2.8;;;;;;;0.39;94.72656;921.3022;;;;
2022/12/14 05:28:29;;;;;;;4.2;3;;;;;;;0.44;94.69629;921.2645;;;;
2022/12/14 05:31:01;;;;;;;137.1;74.6;;;;;;;0.57;94.47949;921.2935;;;;
2022/12/14 05:33:31;;;;;;;37.9;19.6;;;;;;;0.64;94.01563;921.4306;;;;
2022/12/14 05:35:59;;;;;;;427.5;247.7;;;;;;;0.68;93.93457;921.4439;;;;
2022/12/14 05:38:31;;;;;;;113.3;55.4;;;;;;;0.76;93.49316;921.316;;;;
2022/12/14 05:40:56;;;;;;;14.5;7.8;;;;;;;0.79;93.07715;921.427;;;;
2022/12/14 05:52:10;;;;;;;11.7;7.5;;;;;;;0.82;92.44727;921.3065;;;;
2022/12/14 05:54:39;;;;;;;10.1;5.9;;;;;;;0.79;92.65332;921.2712;;;;
2022/12/14 05:57:08;;;;;;;8.5;5.5;;;;;;;0.82;92.56055;921.1836;;;;
2022/12/14 05:59:33;;;;;;;9.4;6.2;;;;;;;0.77;92.71582;921.2161;;;;
2022/12/14 06:02:02;;;;;;;393.5;334;;;;;;;0.72;93.23047;921.169;;;;
2022/12/14 06:04:27;;;;;;;12.7;8.2;;;;;;;0.76;93.60449;921.1697;;;;
2022/12/14 06:06:52;;;;;;;10.9;7.1;;;;;;;0.91;92.86816;921.1741;;;;
2022/12/14 06:09:19;;;;;;;91.9;72.2;;;;;;;0.94;92.37402;921.1542;;;;
2022/12/14 06:11:44;;;;;;;14.2;10.5;;;;;;;0.89;92.55176;921.1119;;;;
2022/12/14 06:14:12;;;;;;;9.7;7.4;;;;;;;0.95;92.28711;921.0496;;;;
2022/12/14 06:16:39;;;;;;;14.8;9.2;;;;;;;0.98;91.60059;921.1135;;;;
2022/12/14 06:25:14;;;;;;;9.7;6.4;;;;;;;0.58;92.42676;921.1152;;;;
2022/12/14 06:27:43;;;;;;;7.6;5;;;;;;;0.42;93.39648;921.1655;;;;
2022/12/14 06:30:08;;;;;;;6;4.1;;;;;;;0.44;93.77051;921.1392;;;;
2022/12/14 06:32:38;;;;;;;7.1;5.6;;;;;;;0.33;94.51172;921.1931;;;;
2022/12/14 06:35:09;;;;;;;10.1;7.2;;;;;;;0.46;94.06445;921.196;;;;
2022/12/14 06:37:34;;;;;;;7.4;5.6;;;;;;;0.61;93.46094;921.2037;;;;
2022/12/14 06:40:03;;;;;;;12.2;8.9;;;;;;;0.62;93.30859;921.2463;;;;
2022/12/14 07:03:16;;;;;;;19.5;14.7;;;;;;;0.65;94.75195;921.2483;;;;
2022/12/14 07:05:31;;;;;;;21.7;14.2;;;;;;;0.75;94.02832;921.0762;;;;
2022/12/14 07:07:56;;;;;;;13.2;8.6;;;;;;;0.77;93.75391;921.1839;;;;
2022/12/14 07:10:22;;;;;;;10.7;7.1;;;;;;;0.73;93.66602;921.2271;;;;
2022/12/14 07:12:47;;;;;;;14;8.2;;;;;;;0.86;93.26953;921.1512;;;;
2022/12/14 07:15:13;;;;;;;11.5;7;;;;;;;0.74;93.41309;921.1512;;;;
2022/12/14 07:17:41;;;;;;;12.2;7.5;;;;;;;0.64;94.23926;921.0633;;;;
2022/12/14 07:20:07;;;;;;;10.5;7.3;;;;;;;0.72;94.18848;921.1533;;;;
2022/12/14 07:22:37;;;;;;;21.2;12.1;;;;;;;0.54;94.89551;921.0525;;;;
2022/12/14 07:25:07;;;;;;;22.4;13.2;;;;;;;0.78;94.51465;921.1144;;;;
2022/12/14 07:27:32;;;;;;;15.5;10;;;;;;;0.84;94.05762;921.1572;;;;
2022/12/14 07:30:04;;;;;;;13.8;8.7;;;;;;;0.76;94.56445;921.074;;;;
2022/12/14 07:36:04;;;;;;;17.6;10.1;;;;;;;1.21;93.06836;921.0159;;;;
2022/12/14 07:38:36;;;;;;;10;6.2;;;;;;;1.22;92.5;920.98;;;;
2022/12/14 07:41:11;;;;;;;13.7;9.5;;;;;;;1.2;92.45117;920.9511;;;;
2022/12/14 07:43:36;;;;;;;13.3;9.6;;;;;;;1.4;92.11719;920.9642;;;;
2022/12/14 07:46:06;;;;;;;8.6;6.8;;;;;;;1.44;91.57715;920.9106;;;;
2022/12/14 07:48:33;;;;;;;6.5;5.1;;;;;;;1.42;91.21387;920.8853;;;;
2022/12/14 07:51:00;;;;;;;7.8;4.9;;;;;;;1.34;91.43262;920.9764;;;;
2022/12/14 07:53:25;;;;;;;9.8;6.4;;;;;;;1.23;91.7334;920.9174;;;;
2022/12/14 07:55:50;;;;;;;10.3;6.5;;;;;;;1.11;92.30859;920.9183;;;;
2022/12/14 07:58:19;;;;;;;12;6.5;;;;;;;1.02;92.92578;920.9545;;;;
2022/12/14 08:00:50;;;;;;;11.5;6.8;;;;;;;1.13;94.88379;920.9642;;;;
2022/12/14 08:03:25;;;;;;;10.7;6.7;;;;;;;1.16;93.06934;920.8948;;;;
2022/12/14 08:05:57;;;;;;;16.3;9.3;;;;;;;1.23;92.70313;920.7794;;;;
2022/12/14 08:08:25;;;;;;;13.9;8.4;;;;;;;1.44;92.25879;920.7453;;;;
2022/12/14 08:10:57;;;;;;;13.7;8.6;;;;;;;1.59;93.33203;920.7129;;;;
2022/12/14 08:13:22;;;;;;;13.9;9;;;;;;;1.6;92.37305;920.6483;;;;
2022/12/14 08:15:55;;;;;;;13.3;7;;;;;;;1.58;91.65332;920.6869;;;;
2022/12/14 08:18:21;;;;;;;12.7;8.3;;;;;;;1.77;91.3457;920.6928;;;;
2022/12/14 08:20:52;;;;;;;15.7;8.2;;;;;;;1.99;89.6709;920.5681;;;;
2022/12/14 08:23:23;;;;;;;11.9;7.6;;;;;;;2.03;89.27539;920.4771;;;;
2022/12/14 08:25:51;;;;;;;13.3;7.6;;;;;;;2.09;87.78809;920.6567;;;;
2022/12/14 08:28:25;;;;;;;14.1;7.8;;;;;;;2.12;87.76074;920.588;;;;
2022/12/14 08:30:53;;;;;;;14.9;8;;;;;;;2.17;86.98828;920.4936;;;;
2022/12/14 08:33:18;;;;;;;13.8;7.4;;;;;;;2.37;85.95117;920.5974;;;;
2022/12/14 08:35:47;;;;;;;13;7.2;;;;;;;2.53;85.52637;920.5012;;;;
2022/12/14 08:38:14;;;;;;;11.1;7.1;;;;;;;2.54;84.87891;920.3976;;;;
2022/12/14 08:40:41;;;;;;;12.4;7.5;;;;;;;2.19;85.84766;920.3839;;;;
2022/12/14 08:43:09;;;;;;;10.4;6.7;;;;;;;2.13;86.3291;920.3981;;;;
2022/12/14 08:45:36;;;;;;;13.2;8;;;;;;;2.23;86.16992;920.4067;;;;
2022/12/14 08:48:06;;;;;;;10.6;6.9;;;;;;;2.36;85.23242;920.4583;;;;
2022/12/14 08:50:38;;;;;;;12.9;7.7;;;;;;;2.38;85.35059;920.4256;;;;
2022/12/14 08:53:04;;;;;;;9.5;5.7;;;;;;;2.58;84.5957;920.3557;;;;
2022/12/14 08:55:32;;;;;;;9.6;5.8;;;;;;;2.6;84.00391;920.3542;;;;
2022/12/14 08:58:03;;;;;;;16.4;10.3;;;;;;;2.14;85.45996;920.3308;;;;
2022/12/14 09:00:27;;;;;;;16.3;9.5;;;;;;;2.26;86.2334;920.3427;;;;
2022/12/14 09:03:01;;;;;;;7.9;5.4;;;;;;;2.33;85.33887;920.3723;;;;
2022/12/14 09:05:26;;;;;;;4.1;3.2;;;;;;;2.43;83.96094;920.3039;;;;
2022/12/14 09:07:57;;;;;;;7.1;4.3;;;;;;;2.44;83.93848;920.3094;;;;
2022/12/14 09:10:26;;;;;;;6.5;4;;;;;;;2.49;83.66895;920.3374;;;;
2022/12/14 09:12:51;;;;;;;7.6;5;;;;;;;2.66;82.80566;920.363;;;;
2022/12/14 09:15:22;;;;;;;6;3.9;;;;;;;2.56;82.62988;920.3373;;;;
2022/12/14 09:17:53;;;;;;;5.6;3.8;;;;;;;2.63;83.04688;920.2999;;;;
2022/12/14 09:20:18;;;;;;;7.2;5.1;;;;;;;2.62;83.13477;920.2031;;;;
2022/12/14 09:22:49;;;;;;;7.9;5.1;;;;;;;2.71;82.84863;920.2856;;;;
2022/12/14 09:25:15;;;;;;;10.5;5.7;;;;;;;2.87;81.54492;920.241;;;;
2022/12/14 09:27:42;;;;;;;6.8;4.6;;;;;;;2.84;81.48438;920.1928;;;;
2022/12/14 09:30:12;;;;;;;11.3;9.9;;;;;;;2.99;81.10938;920.1265;;;;
2022/12/14 09:32:38;;;;;;;10.7;7.2;;;;;;;3.12;79.84277;920.1262;;;;
2022/12/14 09:35:02;;;;;;;7.8;4.5;;;;;;;2.97;78.68164;919.9706;;;;
2022/12/14 09:37:31;;;;;;;9.6;6;;;;;;;3.2;78.82617;919.9703;;;;
2022/12/14 09:40:00;;;;;;;7.5;4.6;;;;;;;3.24;78.08008;919.8976;;;;
2022/12/14 09:42:25;;;;;;;7.6;3.8;;;;;;;3.15;78.42285;919.8692;;;;
2022/12/14 09:44:53;;;;;;;7.2;4.4;;;;;;;3.45;77.75;919.8159;;;;
2022/12/14 09:47:19;;;;;;;7.9;4.6;;;;;;;3.56;77.21875;919.8731;;;;
2022/12/14 09:49:45;;;;;;;8.9;5.6;;;;;;;3.84;76.58301;919.8247;;;;
2022/12/14 09:52:10;;;;;;;10.8;6.2;;;;;;;3.93;76.4209;919.7567;;;;
2022/12/14 09:54:35;;;;;;;5.8;4.6;;;;;;;3.98;76.74512;919.7395;;;;
2022/12/14 09:57:05;;;;;;;6.3;4.6;;;;;;;4.11;76.65527;919.7048;;;;
2022/12/14 09:59:37;;;;;;;4.8;3.2;;;;;;;4.13;75.15332;919.5994;;;;
2022/12/14 10:02:04;;;;;;;5.1;3.3;;;;;;;4.09;74.09766;919.5355;;;;
2022/12/14 10:04:33;;;;;;;6.9;4.4;;;;;;;4.2;74.47656;919.546;;;;
2022/12/14 10:07:00;;;;;;;3.8;2.5;;;;;;;4.39;71.41406;919.4828;;;;
2022/12/14 10:09:28;;;;;;;3.1;2;;;;;;;4.47;71.23828;919.4077;;;;
2022/12/14 10:11:53;;;;;;;5;3;;;;;;;4.51;71.2002;919.4188;;;;
2022/12/14 10:14:21;;;;;;;4;2.7;;;;;;;4.6;70.61719;919.433;;;;
2022/12/14 10:16:53;;;;;;;5.5;3.3;;;;;;;4.84;69.95898;919.3549;;;;
2022/12/14 10:19:24;;;;;;;5.6;3.9;;;;;;;4.94;70.30176;919.447;;;;
2022/12/14 10:21:53;;;;;;;4.1;2.6;;;;;;;4.98;69.45117;919.4092;;;;
2022/12/14 10:24:19;;;;;;;3.5;2.6;;;;;;;5.32;70.09375;919.2003;;;;
2022/12/14 10:26:44;;;;;;;4.5;3.2;;;;;;;5.62;68.38184;919.2585;;;;
2022/12/14 10:29:09;;;;;;;4.8;3.4;;;;;;;5.75;68.56055;919.2305;;;;
2022/12/14 10:31:34;;;;;;;4.7;3.3;;;;;;;5.61;69.66895;919.1487;;;;
2022/12/14 10:34:01;;;;;;;4.8;3.4;;;;;;;5.81;68.05078;919.2195;;;;
2022/12/14 10:36:31;;;;;;;3.5;2.6;;;;;;;5.69;67.53516;919.2275;;;;
2022/12/14 10:38:56;;;;;;;2.1;1.8;;;;;;;5.89;66.73047;919.2878;;;;
2022/12/14 10:41:21;;;;;;;2;1.8;;;;;;;6.01;67.28125;919.3574;;;;
2022/12/14 10:44:04;;;;;;;2.4;1.7;;;;;;;6.04;64.99219;919.3589;;;;
2022/12/14 10:46:32;;;;;;;2.2;1.8;;;;;;;6.12;64.5625;919.2938;;;;
2022/12/14 10:49:00;;;;;;;3.2;2;;;;;;;6.25;65.0918;919.2823;;;;
2022/12/14 10:51:30;;;;;;;3.5;2.7;;;;;;;6.28;65.38965;919.2419;;;;
2022/12/14 10:53:55;;;;;;;1.3;1.1;;;;;;;6.5;65.55957;919.1633;;;;
2022/12/14 10:56:20;;;;;;;1;0.9;;;;;;;6.49;65.97363;919.142;;;;
2022/12/14 10:58:48;;;;;;;4.3;2.5;;;;;;;6.26;66.56152;919.2222;;;;
2022/12/14 11:01:14;;;;;;;3.1;2.6;;;;;;;6.34;64.62988;919.1174;;;;
2022/12/14 11:03:39;;;;;;;2;1.7;;;;;;;5.99;63.71875;919.0366;;;;
2022/12/14 11:06:07;;;;;;;2.5;1.9;;;;;;;5.7;64.5791;919.0261;;;;
2022/12/14 11:08:59;;;;;;;5.1;2.5;;;;;;;6.13;64.54102;918.9626;;;;
2022/12/14 11:11:23;;;;;;;6.4;3.3;;;;;;;6.51;64.32715;918.9277;;;;
2022/12/14 11:13:48;;;;;;;5;2.9;;;;;;;6.38;64.08203;918.933;;;;
2022/12/14 11:16:14;;;;;;;3.6;2.4;;;;;;;6.2;63.91895;918.8113;;;;
2022/12/14 11:18:39;;;;;;;2.5;1.9;;;;;;;6.28;63.39941;918.7645;;;;
2022/12/14 11:21:04;;;;;;;3;2.3;;;;;;;6.41;65.02441;918.7639;;;;
2022/12/14 11:23:29;;;;;;;4.3;3;;;;;;;6.47;64.87402;918.8102;;;;
2022/12/14 11:25:57;;;;;;;5.7;3;;;;;;;6.39;65.32715;918.6816;;;;
2022/12/14 11:28:22;;;;;;;3.9;2.8;;;;;;;6.25;65.91699;918.6509;;;;
2022/12/14 11:30:50;;;;;;;3.1;2.4;;;;;;;6.08;66.19531;918.7938;;;;
2022/12/14 11:33:15;;;;;;;2.6;1.9;;;;;;;6.1;66.54883;918.661;;;;
2022/12/14 11:35:48;;;;;;;26.5;9.1;;;;;;;6.1;67.58789;918.5923;;;;
2022/12/14 11:38:13;;;;;;;2.1;1.7;;;;;;;6.33;64.93457;918.7017;;;;
2022/12/14 11:40:40;;;;;;;2.6;1.9;;;;;;;6.17;64.46973;918.5563;;;;
2022/12/14 11:43:08;;;;;;;3.6;2.5;;;;;;;6.15;65.70898;918.603;;;;
2022/12/14 11:45:38;;;;;;;4;2.8;;;;;;;6.2;66.53027;918.575;;;;
2022/12/14 11:48:09;;;;;;;3.4;2.2;;;;;;;6.32;67.0459;918.6955;;;;
2022/12/14 11:50:34;;;;;;;3.5;2.1;;;;;;;6.41;66.89063;918.609;;;;
2022/12/14 11:53:01;;;;;;;3.5;1.9;;;;;;;6.34;64.94727;918.9048;;;;
2022/12/14 11:55:26;;;;;;;4;2.2;;;;;;;6.35;65.50195;918.9387;;;;
2022/12/14 11:57:52;;;;;;;7.9;5.2;;;;;;;6.44;64.08984;919.0681;;;;
2022/12/14 12:00:17;;;;;;;6.1;3.8;;;;;;;6.3;65.90234;919.0583;;;;
2022/12/14 12:02:45;;;;;;;7.6;4.6;;;;;;;6.25;66.59473;919.2103;;;;
2022/12/14 12:05:11;;;;;;;5.9;3.6;;;;;;;6.38;65.07715;919.0358;;;;
2022/12/14 12:07:38;;;;;;;4.1;3.1;;;;;;;6.51;65.73047;919.1473;;;;
2022/12/14 12:10:03;;;;;;;5.1;3.5;;;;;;;6.94;67.0752;918.8766;;;;
2022/12/14 12:12:29;;;;;;;6.6;4;;;;;;;7.3;65.40918;918.984;;;;
2022/12/14 12:14:57;;;;;;;6.4;4.2;;;;;;;7.06;67.45801;918.9297;;;;
2022/12/14 12:17:26;;;;;;;5.3;3.7;;;;;;;7.48;66.34375;918.9151;;;;
2022/12/14 12:19:54;;;;;;;6.6;5;;;;;;;7.04;68.09863;918.8603;;;;
2022/12/14 12:22:20;;;;;;;7.6;5.1;;;;;;;6.72;68.55664;918.9153;;;;
2022/12/14 12:24:45;;;;;;;9.4;5.6;;;;;;;6.62;69.40039;918.8924;;;;
2022/12/14 12:27:11;;;;;;;8;5.2;;;;;;;6.67;69.19434;918.8287;;;;
2022/12/14 12:29:35;;;;;;;8.9;5.3;;;;;;;6.56;70.02539;918.7715;;;;
2022/12/14 12:32:02;;;;;;;23.9;14.9;;;;;;;6.59;70.09766;918.731;;;;
2022/12/14 12:34:28;;;;;;;12.4;6.5;;;;;;;6.71;69.8125;918.5887;;;;
2022/12/14 12:36:52;;;;;;;9.6;6.5;;;;;;;6.87;69.18066;918.53;;;;
2022/12/14 12:39:17;;;;;;;11.8;6.9;;;;;;;7.03;66.7041;918.4892;;;;
2022/12/14 12:41:46;;;;;;;20.4;11.5;;;;;;;6.98;66.49219;918.4586;;;;
2022/12/14 12:44:11;;;;;;;13;7.9;;;;;;;7.21;65.71191;918.4258;;;;
2022/12/14 12:46:43;;;;;;;7.7;5.3;;;;;;;7.29;64.77441;918.3674;;;;
2022/12/14 12:49:02;;;;;;;6.8;4.9;;;;;;;7.61;64.59473;918.3367;;;;
2022/12/14 12:51:29;;;;;;;5.5;4.1;;;;;;;7.71;65.0625;918.383;;;;
2022/12/14 12:53:56;;;;;;;5.8;3.7;;;;;;;7.46;66.05762;918.3784;;;;
2022/12/14 12:56:21;;;;;;;3.8;2.6;;;;;;;7.08;65.54492;918.2941;;;;
2022/12/14 12:58:48;;;;;;;4.5;3.4;;;;;;;7.06;65.41895;918.288;;;;
2022/12/14 13:01:14;;;;;;;13.5;8.4;;;;;;;6.78;66.01953;918.3296;;;;
2022/12/14 13:03:41;;;;;;;5.5;3.5;;;;;;;6.93;66.72461;918.3261;;;;
2022/12/14 13:06:06;;;;;;;10.2;6.4;;;;;;;7.18;66.33203;918.3477;;;;
2022/12/14 13:08:31;;;;;;;9.2;6.1;;;;;;;7.09;67.17871;918.3272;;;;
2022/12/14 13:10:56;;;;;;;9.5;6.4;;;;;;;7.21;68.36426;918.3778;;;;
2022/12/14 13:13:22;;;;;;;6.2;4.7;;;;;;;6.77;71.00977;918.4697;;;;
2022/12/14 13:15:58;;;;;;;7;4.3;;;;;;;6.31;72.91211;918.4521;;;;
2022/12/14 13:18:24;;;;;;;6.4;4.3;;;;;;;6.44;73.66992;918.5147;;;;
2022/12/14 13:20:48;;;;;;;5;3.7;;;;;;;6.33;73.07324;918.4655;;;;
2022/12/14 13:23:13;;;;;;;5.3;3.8;;;;;;;6.34;72.81641;918.5136;;;;
2022/12/14 13:25:40;;;;;;;5.3;4.1;;;;;;;6.2;73.27832;918.4842;;;;
2022/12/14 13:28:06;;;;;;;5.9;4.3;;;;;;;7.47;71.02441;918.452;;;;
2022/12/14 13:30:31;;;;;;;8.5;5.2;;;;;;;8.14;66.69531;918.3549;;;;
2022/12/14 13:32:59;;;;;;;11.8;6.7;;;;;;;7.75;68.41602;918.5164;;;;
2022/12/14 13:35:24;;;;;;;12.2;7.2;;;;;;;8.11;67.88379;918.4378;;;;
2022/12/14 13:37:50;;;;;;;16.2;8.3;;;;;;;8.19;66.61328;918.34;;;;
2022/12/14 13:40:18;;;;;;;8.7;6;;;;;;;6.94;71.8418;918.4163;;;;
2022/12/14 13:42:44;;;;;;;9.1;6;;;;;;;6.02;76.10742;918.4529;;;;
2022/12/14 13:45:12;;;;;;;8.4;5.4;;;;;;;5.71;77.78809;918.4695;;;;
2022/12/14 13:47:38;;;;;;;7.3;4.5;;;;;;;5.18;79.50879;918.4603;;;;
2022/12/14 13:50:05;;;;;;;10.7;6.7;;;;;;;4.97;80.82422;918.5197;;;;
2022/12/14 13:52:30;;;;;;;12;7.5;;;;;;;4.93;81.0498;918.5529;;;;
2022/12/14 13:54:55;;;;;;;10.7;7.3;;;;;;;5.2;80.19043;918.5652;;;;
2022/12/14 13:57:20;;;;;;;9.6;6.6;;;;;;;4.88;81.83008;918.627;;;;
2022/12/14 13:59:48;;;;;;;36.1;22.5;;;;;;;4.95;81.82227;918.5717;;;;
2022/12/14 14:02:14;;;;;;;16.4;9.5;;;;;;;4.77;83.16113;918.4945;;;;
2022/12/14 14:04:41;;;;;;;11.6;7;;;;;;;4.78;83.33008;918.5559;;;;
2022/12/14 14:07:05;;;;;;;9.7;5.8;;;;;;;4.66;84.49023;918.5245;;;;
2022/12/14 14:09:32;;;;;;;11.7;6.2;;;;;;;4.52;85.72461;918.5551;;;;
2022/12/14 14:11:57;;;;;;;11.1;5.5;;;;;;;4.66;85.52832;918.59;;;;
2022/12/14 14:14:23;;;;;;;8.5;5.5;;;;;;;4.81;85.02539;918.7249;;;;
2022/12/14 14:16:47;;;;;;;12.4;8.3;;;;;;;4.87;84.74707;918.6933;;;;
2022/12/14 14:19:14;;;;;;;17.1;10.8;;;;;;;5.06;83.92676;918.7643;;;;
2022/12/14 14:21:39;;;;;;;21.4;13.4;;;;;;;5.28;82.94629;918.9084;;;;
2022/12/14 14:24:09;;;;;;;25.1;16.6;;;;;;;5.25;82.99414;918.9495;;;;
2022/12/14 14:26:34;;;;;;;14.9;11.1;;;;;;;5.02;83.89844;918.8724;;;;
2022/12/14 14:29:01;;;;;;;19.7;11.6;;;;;;;4.69;85.65918;918.8335;;;;
2022/12/14 14:31:29;;;;;;;16.2;11.1;;;;;;;4.56;86.73535;918.938;;;;
2022/12/14 14:33:54;;;;;;;12;9.7;;;;;;;4.35;87.92969;918.8794;;;;
2022/12/14 14:36:19;;;;;;;15.2;9.5;;;;;;;4.09;89.23633;918.9417;;;;
2022/12/14 14:38:49;;;;;;;13;8.6;;;;;;;4.12;88.94043;918.9158;;;;
2022/12/14 14:41:13;;;;;;;15.7;9.1;;;;;;;4.3;88.21289;918.7958;;;;
2022/12/14 14:43:39;;;;;;;13.7;7.9;;;;;;;4.28;87.69141;918.6233;;;;
2022/12/14 14:46:03;;;;;;;21.3;11.4;;;;;;;4.19;87.65918;918.8308;;;;
2022/12/14 14:48:32;;;;;;;14;8.8;;;;;;;4.2;87.91113;918.8442;;;;
2022/12/14 14:50:57;;;;;;;13.2;8.7;;;;;;;4.15;88.20313;918.8212;;;;
2022/12/14 14:53:27;;;;;;;11.3;8.3;;;;;;;3.92;89.7627;918.8898;;;;
2022/12/14 14:55:55;;;;;;;14.2;8.4;;;;;;;4.18;88.96484;918.7221;;;;
2022/12/14 14:58:24;;;;;;;16.1;9.6;;;;;;;4.08;89.14648;918.8755;;;;
2022/12/14 15:00:49;;;;;;;9.3;7;;;;;;;4.19;89.03418;918.8095;;;;
2022/12/14 15:03:14;;;;;;;13.1;6.8;;;;;;;4.24;88.2334;918.843;;;;
2022/12/14 15:05:40;;;;;;;10.9;6;;;;;;;4.16;88.99512;918.8449;;;;
2022/12/14 15:08:04;;;;;;;8.4;5.5;;;;;;;4.19;88.48242;918.8812;;;;
2022/12/14 15:10:30;;;;;;;10;5.5;;;;;;;4.23;88.5127;918.9028;;;;
2022/12/14 15:12:55;;;;;;;7.5;5.1;;;;;;;4.37;87.66309;919.0392;;;;
2022/12/14 15:15:20;;;;;;;10.9;6.9;;;;;;;4.5;87.09277;918.9609;;;;
2022/12/14 15:17:50;;;;;;;13.4;8.3;;;;;;;4.66;86.2041;919.0527;;;;
2022/12/14 15:20:16;;;;;;;15.2;10;;;;;;;4.56;86.32813;919.15;;;;
2022/12/14 15:22:41;;;;;;;18.6;11.2;;;;;;;4.3;87.55957;919.2156;;;;
2022/12/14 15:25:12;;;;;;;11.9;8.2;;;;;;;4.3;87.9541;919.162;;;;
2022/12/14 15:27:38;;;;;;;16.7;11.8;;;;;;;4.35;88.14551;919.3134;;;;
2022/12/14 15:30:05;;;;;;;19.4;11.1;;;;;;;4.42;87.48242;919.5029;;;;
2022/12/14 15:32:31;;;;;;;17.1;10.9;;;;;;;4.47;87.37012;919.4155;;;;
2022/12/14 15:34:55;;;;;;;17.9;11.3;;;;;;;4.47;87.35742;919.4557;;;;
2022/12/14 15:37:21;;;;;;;18.8;11.9;;;;;;;4.4;87.05176;919.4482;;;;
2022/12/14 15:39:46;;;;;;;21.2;13.8;;;;;;;4;88.96094;919.5443;;;;
2022/12/14 15:42:13;;;;;;;16;9.6;;;;;;;4.02;89.17578;919.5517;;;;
2022/12/14 15:44:42;;;;;;;15.1;10.3;;;;;;;4.23;88.00684;919.5801;;;;
2022/12/14 15:47:03;;;;;;;14.2;9;;;;;;;4.32;87.69922;919.6577;;;;
2022/12/14 15:49:32;;;;;;;18.5;11.7;;;;;;;4.28;88.28809;919.6937;;;;
2022/12/14 15:51:57;;;;;;;19.6;11.8;;;;;;;4.3;88.38184;919.8766;;;;
2022/12/14 15:54:25;;;;;;;21.5;13;;;;;;;4.4;87.78125;920.0998;;;;
2022/12/14 15:56:50;;;;;;;23.5;14.4;;;;;;;4.29;87.99707;920.0506;;;;
2022/12/14 15:59:15;;;;;;;23.9;15.2;;;;;;;4.14;88.92188;920.1278;;;;
2022/12/14 16:01:43;;;;;;;21.9;14;;;;;;;3.95;89.74805;920.344;;;;
2022/12/14 16:04:08;;;;;;;14.6;10;;;;;;;3.79;90.80566;920.2256;;;;
2022/12/14 16:06:35;;;;;;;11.4;7.4;;;;;;;3.81;91.07715;920.1323;;;;
2022/12/14 16:09:00;;;;;;;11;7.3;;;;;;;3.57;92.18457;920.0739;;;;
2022/12/14 16:11:28;;;;;;;19.1;11.3;;;;;;;3.75;91.74219;920.0019;;;;
2022/12/14 16:13:54;;;;;;;26.9;15.8;;;;;;;3.8;91.53809;920.0844;;;;
2022/12/14 16:16:20;;;;;;;42.8;22.7;;;;;;;3.89;91.00488;920.1878;;;;
2022/12/14 16:18:50;;;;;;;40.4;23.2;;;;;;;3.97;90.53906;920.4803;;;;
2022/12/14 16:21:15;;;;;;;17.6;11.2;;;;;;;3.98;90.42969;920.5213;;;;
2022/12/14 16:23:40;;;;;;;20.7;12.3;;;;;;;3.94;90.58691;920.5392;;;;
2022/12/14 16:26:10;;;;;;;17.3;10.5;;;;;;;3.89;90.58887;920.4515;;;;
2022/12/14 16:28:39;;;;;;;19.4;13.5;;;;;;;3.74;90.5918;920.4182;;;;
2022/12/14 16:31:05;;;;;;;25.8;19;;;;;;;3.76;90.4834;920.4632;;;;
2022/12/14 16:33:30;;;;;;;7.8;5.3;;;;;;;3.66;90.94531;920.4398;;;;
2022/12/14 16:35:55;;;;;;;7.9;4.5;;;;;;;3.59;91.53613;920.2612;;;;
2022/12/14 16:38:20;;;;;;;69.8;39.7;;;;;;;3.68;91.69043;920.2636;;;;
2022/12/14 16:40:45;;;;;;;513.7;332.5;;;;;;;3.73;91.70215;920.2813;;;;